Ledbetter, Texas
Current Conditions -  °F | °C
As of 2:20 AM on Tuesday 27 Jan 2015 (Local Time) from K3T5 Reporting Station
Clear Clear  
Wind Chill: 49°   Ceiling: Unl
Heat Index: 49°   Visibility: 10mi
Dew Point: 42°   Wind: 0mph
Humidity: 76%   Direction: NA
Pressure: 30.13"   Gusts: NA
Location:  30.15°N, 96.79°W
Report Text: K3T5 270820Z AUTO 00000KT 10SM CLR 10/06 A3013 RMK AO2 T00950055
Loading
Personal Weather Stations






























Interactive Weather Map New forecast layout! Learn more

10-Day Weather Forecast

Advertisements
Track Severe Weather on mobile